createdAt,value
2019-02-28T00:01:59.014Z,6.50
2019-02-28T00:04:05.466Z,6.50
2019-02-28T00:06:12.681Z,6.50
2019-02-28T00:08:17.877Z,6.50
2019-02-28T00:10:23.134Z,6.40
2019-02-28T00:12:27.913Z,6.50
2019-02-28T00:14:33.354Z,6.50
2019-02-28T00:16:38.492Z,6.50
2019-02-28T00:18:43.258Z,6.40
2019-02-28T00:20:48.546Z,6.30
2019-02-28T00:22:53.296Z,6.20
2019-02-28T00:25:01.206Z,6.20
2019-02-28T00:27:04.923Z,6.20
2019-02-28T00:29:09.657Z,6.20
2019-02-28T00:31:15.365Z,6.10
2019-02-28T00:33:20.299Z,6.10
2019-02-28T00:35:25.036Z,6.00
2019-02-28T00:37:33.257Z,6.00
2019-02-28T00:39:38.381Z,5.90
2019-02-28T00:41:44.490Z,5.90
2019-02-28T00:43:49.603Z,5.90
2019-02-28T00:45:54.330Z,5.80
2019-02-28T00:47:59.116Z,5.90
2019-02-28T00:50:04.202Z,5.90
2019-02-28T00:52:08.949Z,5.90
2019-02-28T00:54:13.799Z,6.00
2019-02-28T00:56:18.569Z,6.10
2019-02-28T00:58:28.370Z,6.10
2019-02-28T01:00:29.964Z,6.10
2019-02-28T01:02:34.676Z,6.10
2019-02-28T01:04:39.452Z,6.10
2019-02-28T01:06:44.381Z,6.10
2019-02-28T01:09:10.866Z,6.20
2019-02-28T01:11:16.104Z,6.20
2019-02-28T01:13:21.965Z,6.20
2019-02-28T01:15:27.506Z,6.20
2019-02-28T01:17:32.626Z,6.30
2019-02-28T01:19:41.181Z,6.30
2019-02-28T01:21:45.326Z,6.40
2019-02-28T01:23:50.525Z,6.40
2019-02-28T01:25:55.634Z,6.50
2019-02-28T01:28:00.416Z,6.50
2019-02-28T01:30:06.641Z,6.50
2019-02-28T01:32:15.486Z,6.50
2019-02-28T01:34:18.792Z,6.40
2019-02-28T01:36:23.990Z,6.30
2019-02-28T01:38:28.775Z,6.20
2019-02-28T01:40:35.217Z,6.10
2019-02-28T01:42:40.457Z,6.00
2019-02-28T01:44:45.296Z,5.90
2019-02-28T01:46:50.648Z,5.90
2019-02-28T01:48:55.415Z,6.00
2019-02-28T01:51:01.600Z,6.00
2019-02-28T01:53:06.596Z,6.10
2019-02-28T01:55:12.256Z,6.00
2019-02-28T01:57:17.739Z,5.90
2019-02-28T01:59:23.022Z,5.90
2019-02-28T02:01:28.484Z,5.90
2019-02-28T02:03:34.725Z,5.90
2019-02-28T02:05:55.451Z,5.90
2019-02-28T02:08:09.715Z,5.90
2019-02-28T02:10:54.897Z,6.00
2019-02-28T02:13:11.599Z,5.90
2019-02-28T02:15:21.487Z,6.10
2019-02-28T02:17:27.044Z,6.00
2019-02-28T02:19:31.891Z,6.00
2019-02-28T02:21:36.688Z,6.00
2019-02-28T02:23:41.587Z,6.00
2019-02-28T02:25:46.391Z,6.00
2019-02-28T02:27:53.338Z,6.00
2019-02-28T02:29:57.689Z,6.10
2019-02-28T02:32:02.861Z,6.00
2019-02-28T02:34:08.206Z,6.10
2019-02-28T02:36:16.356Z,6.00
2019-02-28T02:38:19.612Z,6.00
2019-02-28T02:40:24.386Z,6.00
2019-02-28T02:42:29.448Z,6.00
2019-02-28T02:44:34.228Z,5.90
2019-02-28T02:46:39.054Z,6.00
2019-02-28T02:48:43.901Z,6.00
2019-02-28T02:50:48.757Z,6.00
2019-02-28T02:52:53.717Z,5.90
2019-02-28T02:54:58.501Z,5.90
2019-02-28T02:57:03.671Z,5.80
2019-02-28T02:59:08.556Z,5.80
2019-02-28T03:01:13.755Z,5.70
2019-02-28T03:03:18.563Z,5.70
2019-02-28T03:05:23.367Z,5.70
2019-02-28T03:07:28.385Z,5.60
2019-02-28T03:09:33.631Z,5.60
2019-02-28T03:11:38.725Z,5.60
2019-02-28T03:13:44.282Z,5.60
2019-02-28T03:15:49.294Z,5.50
2019-02-28T03:17:54.290Z,5.50
2019-02-28T03:19:59.279Z,5.40
2019-02-28T03:22:04.419Z,5.40
2019-02-28T03:24:14.554Z,5.40
2019-02-28T03:26:15.964Z,5.40
2019-02-28T03:28:20.909Z,5.40
2019-02-28T03:30:31.093Z,5.40
2019-02-28T03:32:39.620Z,5.30
2019-02-28T03:34:39.309Z,5.30
2019-02-28T03:36:51.037Z,5.30
2019-02-28T03:38:50.957Z,5.30
2019-02-28T03:40:56.437Z,5.20
2019-02-28T03:43:20.470Z,5.20
2019-02-28T03:45:29.939Z,5.10
2019-02-28T03:47:32.044Z,5.10
2019-02-28T03:49:37.216Z,5.10
2019-02-28T03:51:41.982Z,5.10
2019-02-28T03:53:46.804Z,5.10
2019-02-28T03:55:52.315Z,5.10
2019-02-28T03:58:04.382Z,5.00
2019-02-28T04:00:03.604Z,5.00
2019-02-28T04:02:08.573Z,5.00
2019-02-28T04:04:13.910Z,5.00
2019-02-28T04:06:18.728Z,5.10
2019-02-28T04:08:29.401Z,5.00
2019-02-28T04:10:30.393Z,5.00
2019-02-28T04:12:35.204Z,5.00
2019-02-28T04:14:40.873Z,5.00
2019-02-28T04:16:52.706Z,5.00
2019-02-28T04:18:52.264Z,5.00
2019-02-28T04:20:57.347Z,5.10
2019-02-28T04:23:02.506Z,5.20
2019-02-28T04:25:07.423Z,5.20
2019-02-28T04:27:12.787Z,5.30
2019-02-28T04:29:18.024Z,5.30
2019-02-28T04:31:23.650Z,5.40
2019-02-28T04:33:28.664Z,5.40
2019-02-28T04:35:33.726Z,5.40
2019-02-28T04:37:44.889Z,5.40
2019-02-28T04:39:45.841Z,5.50
2019-02-28T04:41:50.755Z,5.50
2019-02-28T04:43:55.562Z,5.50
2019-02-28T04:46:00.548Z,5.50
2019-02-28T04:48:05.671Z,5.50
2019-02-28T04:50:10.796Z,5.50
2019-02-28T04:52:15.967Z,5.50
2019-02-28T04:54:20.691Z,5.40
2019-02-28T04:56:25.530Z,5.40
2019-02-28T04:58:33.486Z,5.40
2019-02-28T05:00:38.883Z,5.40
2019-02-28T05:02:44.145Z,5.30
2019-02-28T05:04:49.032Z,5.30
2019-02-28T05:06:55.305Z,5.20
2019-02-28T05:09:00.400Z,5.20
2019-02-28T05:11:05.267Z,5.20
2019-02-28T05:13:11.449Z,5.10
2019-02-28T05:15:16.993Z,5.10
2019-02-28T05:17:22.292Z,5.00
2019-02-28T05:19:28.167Z,4.90
2019-02-28T05:21:53.543Z,4.90
2019-02-28T05:23:58.904Z,4.80
2019-02-28T05:26:03.655Z,4.70
2019-02-28T05:28:08.425Z,4.60
2019-02-28T05:30:17.901Z,4.60
2019-02-28T05:32:23.797Z,4.60
2019-02-28T05:34:28.975Z,4.60
2019-02-28T05:36:34.567Z,4.70
2019-02-28T05:38:40.535Z,4.70
2019-02-28T05:40:45.320Z,4.60
2019-02-28T05:42:50.383Z,4.70
2019-02-28T05:44:55.095Z,4.70
2019-02-28T05:47:00.171Z,4.60
2019-02-28T05:49:08.797Z,4.70
2019-02-28T05:51:12.241Z,4.70
2019-02-28T05:53:17.060Z,4.70
2019-02-28T05:55:25.683Z,4.70
2019-02-28T05:57:28.294Z,4.70
2019-02-28T05:59:33.083Z,4.80
2019-02-28T06:01:37.873Z,4.80
2019-02-28T06:03:42.745Z,4.80
2019-02-28T06:05:47.936Z,4.80
2019-02-28T06:07:53.766Z,4.80
2019-02-28T06:10:01.003Z,4.80
2019-02-28T06:12:06.611Z,4.80
2019-02-28T06:14:12.335Z,4.80
2019-02-28T06:16:17.860Z,4.80
2019-02-28T06:18:22.909Z,4.80
2019-02-28T06:20:27.943Z,4.90
2019-02-28T06:22:36.188Z,4.90
2019-02-28T06:24:40.032Z,4.90
2019-02-28T06:26:48.056Z,5.00
2019-02-28T06:28:52.889Z,5.00
2019-02-28T06:31:00.252Z,5.00
2019-02-28T06:33:08.511Z,5.00
2019-02-28T06:35:16.470Z,5.10
2019-02-28T06:37:20.073Z,5.10
2019-02-28T06:39:26.836Z,5.20
2019-02-28T06:41:32.234Z,5.20
2019-02-28T06:43:36.999Z,5.20
2019-02-28T06:45:41.807Z,5.20
2019-02-28T06:47:49.701Z,5.20
2019-02-28T06:49:53.366Z,5.30
2019-02-28T06:51:58.633Z,5.30
2019-02-28T06:54:04.373Z,5.40
2019-02-28T06:56:10.901Z,5.50
2019-02-28T06:58:26.581Z,5.60
2019-02-28T07:01:00.925Z,5.60
2019-02-28T07:03:06.066Z,5.70
2019-02-28T07:05:11.229Z,5.90
2019-02-28T07:07:16.258Z,6.00
2019-02-28T07:09:21.776Z,6.10
2019-02-28T07:11:27.305Z,6.20
2019-02-28T07:13:40.191Z,6.30
2019-02-28T07:15:59.080Z,6.50
2019-02-28T07:18:02.835Z,6.60
2019-02-28T07:20:13.397Z,6.90
2019-02-28T07:28:30.357Z,7.70
2019-02-28T07:30:37.822Z,9.30
2019-02-28T07:32:42.614Z,10.60
2019-02-28T07:34:47.631Z,11.60
2019-02-28T07:36:52.762Z,12.40
2019-02-28T07:38:57.886Z,13.60
2019-02-28T07:41:03.478Z,14.60
2019-02-28T07:43:12.009Z,15.70
2019-02-28T07:45:14.827Z,16.60
2019-02-28T07:47:19.581Z,17.30
2019-02-28T07:49:25.932Z,17.10
2019-02-28T07:51:30.958Z,16.70
2019-02-28T07:53:35.742Z,16.70
2019-02-28T07:55:40.842Z,17.50
2019-02-28T07:57:51.175Z,18.30
2019-02-28T07:59:52.300Z,18.50
2019-02-28T08:01:59.939Z,19.10
2019-02-28T08:04:04.640Z,19.30
2019-02-28T08:06:09.738Z,18.30
2019-02-28T08:08:14.522Z,19.20
2019-02-28T08:10:20.036Z,19.60
2019-02-28T08:12:27.436Z,20.70
2019-02-28T08:14:31.857Z,19.40
2019-02-28T08:16:37.018Z,18.70
2019-02-28T08:18:41.864Z,18.30
2019-02-28T08:20:46.698Z,17.90
2019-02-28T08:22:52.116Z,17.00
2019-02-28T08:24:56.945Z,17.70
2019-02-28T08:27:02.682Z,18.80
2019-02-28T08:29:09.182Z,20.20
2019-02-28T08:31:13.965Z,21.40
2019-02-28T08:33:18.751Z,21.60
2019-02-28T08:35:23.952Z,21.60
2019-02-28T08:37:28.719Z,21.70
2019-02-28T08:39:33.510Z,21.60
2019-02-28T08:41:38.328Z,21.30
2019-02-28T08:43:44.627Z,20.90
2019-02-28T08:45:50.339Z,20.50
2019-02-28T08:47:56.766Z,19.70
2019-02-28T08:50:01.778Z,19.00
2019-02-28T08:52:06.724Z,18.10
2019-02-28T08:54:11.576Z,17.70
2019-02-28T08:56:16.740Z,17.20
2019-02-28T08:58:21.900Z,16.70
2019-02-28T09:00:31.278Z,17.00
2019-02-28T09:02:33.767Z,16.30
2019-02-28T09:04:41.513Z,16.30
2019-02-28T09:06:45.644Z,16.10
2019-02-28T09:08:50.812Z,15.90
2019-02-28T09:10:55.657Z,16.10
2019-02-28T09:13:00.460Z,15.40
2019-02-28T09:15:05.972Z,15.20
2019-02-28T09:17:10.791Z,15.50
2019-02-28T09:19:15.614Z,15.80
2019-02-28T09:21:20.395Z,16.50
2019-02-28T09:23:25.213Z,17.00
2019-02-28T09:25:30.149Z,17.70
2019-02-28T09:27:35.268Z,17.90
2019-02-28T09:29:41.409Z,18.00
2019-02-28T09:31:46.204Z,18.40
2019-02-28T09:34:36.803Z,18.70
2019-02-28T09:36:44.154Z,18.40
2019-02-28T09:38:56.873Z,19.70
2019-02-28T09:40:55.639Z,20.00
2019-02-28T09:43:00.773Z,19.50
2019-02-28T09:45:07.642Z,19.60
2019-02-28T09:48:18.193Z,20.10
2019-02-28T10:03:56.448Z,17.00
2019-02-28T10:06:28.146Z,16.30
2019-02-28T10:11:41.075Z,16.10
2019-02-28T10:13:46.126Z,15.90
2019-02-28T10:15:50.865Z,15.80
2019-02-28T10:17:55.649Z,15.40
2019-02-28T10:20:26.277Z,15.30
2019-02-28T10:22:57.321Z,14.90
2019-02-28T10:25:43.328Z,14.60
2019-02-28T10:28:02.634Z,14.60
2019-02-28T10:30:41.855Z,14.40
2019-02-28T10:32:47.847Z,14.50
2019-02-28T10:34:52.701Z,14.30
2019-02-28T10:36:57.711Z,14.40
2019-02-28T10:39:02.821Z,14.20
2019-02-28T10:41:07.770Z,13.90
2019-02-28T10:43:15.617Z,14.20
2019-02-28T10:45:20.028Z,14.00
2019-02-28T10:47:28.143Z,14.10
2019-02-28T10:49:31.301Z,14.20
2019-02-28T10:51:36.524Z,14.10
2019-02-28T10:53:41.684Z,14.60
2019-02-28T10:55:47.055Z,14.90
2019-02-28T10:57:52.606Z,15.00
2019-02-28T10:59:58.172Z,14.90
2019-02-28T11:02:04.624Z,14.60
2019-02-28T11:04:09.748Z,14.70
2019-02-28T11:06:14.625Z,14.80
2019-02-28T11:08:19.464Z,15.00
2019-02-28T11:10:32.107Z,15.10
2019-02-28T11:12:35.784Z,15.30
2019-02-28T11:14:40.500Z,16.10
2019-02-28T11:16:45.403Z,16.50
2019-02-28T11:18:50.140Z,16.90
2019-02-28T11:20:58.063Z,16.70
2019-02-28T11:23:01.370Z,16.70
2019-02-28T11:25:07.956Z,16.90
2019-02-28T11:27:13.212Z,17.20
2019-02-28T11:29:18.022Z,17.20
2019-02-28T11:32:29.989Z,17.70
2019-02-28T11:35:51.037Z,17.80
2019-02-28T11:38:21.701Z,18.00
2019-02-28T11:40:28.984Z,18.70
2019-02-28T11:42:34.293Z,18.80
2019-02-28T11:44:39.273Z,19.20
2019-02-28T11:46:44.714Z,19.50
2019-02-28T11:48:51.058Z,19.30
2019-02-28T11:50:58.227Z,20.30
2019-02-28T11:53:05.878Z,20.60
2019-02-28T11:55:23.087Z,19.80
2019-02-28T11:57:28.056Z,19.80
2019-02-28T11:59:33.330Z,19.20
2019-02-28T12:01:38.806Z,18.50
2019-02-28T12:03:43.939Z,19.10
2019-02-28T12:05:50.637Z,18.80
2019-02-28T12:07:56.159Z,18.90
2019-02-28T12:10:00.904Z,18.60
2019-02-28T12:12:07.250Z,18.70
2019-02-28T12:14:35.762Z,18.40
2019-02-28T12:16:40.467Z,18.30
2019-02-28T12:18:45.255Z,18.40
2019-02-28T12:20:50.480Z,18.60
2019-02-28T12:22:55.439Z,18.00
2019-02-28T12:25:00.278Z,17.70
2019-02-28T12:27:05.052Z,17.50
2019-02-28T12:29:12.878Z,17.20
2019-02-28T12:31:16.499Z,17.40
2019-02-28T12:33:23.381Z,17.40
2019-02-28T12:35:28.668Z,17.60
2019-02-28T12:37:36.636Z,18.00
2019-02-28T12:39:41.479Z,18.10
2019-02-28T12:41:46.670Z,17.90
2019-02-28T12:43:51.374Z,17.70
2019-02-28T12:45:56.779Z,17.60
2019-02-28T12:48:02.555Z,17.60
2019-02-28T12:50:08.206Z,17.50
2019-02-28T12:52:14.587Z,17.40
2019-02-28T12:54:22.424Z,17.20
2019-02-28T12:56:27.483Z,17.50
2019-02-28T12:58:38.837Z,17.30
2019-02-28T13:00:39.021Z,17.50
2019-02-28T13:02:44.478Z,16.80
2019-02-28T13:04:49.295Z,16.80
2019-02-28T13:06:55.611Z,16.30
2019-02-28T13:09:00.412Z,15.80
2019-02-28T13:11:05.322Z,15.40
2019-02-28T13:13:10.478Z,15.60
2019-02-28T13:15:15.992Z,15.50
2019-02-28T13:17:28.271Z,15.20
2019-02-28T13:19:53.281Z,14.90
2019-02-28T13:21:58.646Z,14.40
2019-02-28T13:24:06.067Z,14.20
2019-02-28T13:26:09.891Z,14.10
2019-02-28T13:28:18.136Z,13.70
2019-02-28T13:30:25.111Z,13.50
2019-02-28T13:32:33.770Z,13.20
2019-02-28T13:34:40.582Z,13.20
2019-02-28T13:36:46.498Z,13.10
2019-02-28T13:38:54.668Z,12.80
2019-02-28T13:40:57.875Z,12.70
2019-02-28T13:43:04.937Z,12.70
2019-02-28T13:45:14.738Z,12.60
2019-02-28T13:47:19.990Z,12.60
2019-02-28T13:49:33.228Z,12.60
2019-02-28T13:51:42.006Z,12.50
2019-02-28T13:53:45.635Z,12.60
2019-02-28T13:55:52.655Z,12.80
2019-02-28T13:58:00.467Z,12.80
2019-02-28T14:00:08.997Z,12.70
2019-02-28T14:02:13.983Z,12.50
2019-02-28T14:04:24.820Z,12.50
2019-02-28T14:06:25.223Z,12.60
2019-02-28T14:08:30.406Z,12.80
2019-02-28T14:10:35.140Z,13.10
2019-02-28T14:12:40.332Z,13.20
2019-02-28T14:14:45.107Z,13.60
2019-02-28T14:16:50.192Z,13.80
2019-02-28T14:18:55.072Z,13.90
2019-02-28T14:21:03.110Z,13.70
2019-02-28T14:23:06.522Z,13.60
2019-02-28T14:25:11.380Z,13.50
2019-02-28T14:27:16.183Z,13.50
2019-02-28T14:29:20.922Z,13.60
2019-02-28T14:31:25.674Z,13.40
2019-02-28T14:33:33.167Z,13.40
2019-02-28T14:35:38.913Z,13.50
2019-02-28T14:37:43.892Z,13.40
2019-02-28T14:39:48.683Z,13.40
2019-02-28T14:41:53.472Z,13.40
2019-02-28T14:43:58.292Z,13.40
2019-02-28T14:46:03.007Z,13.60
2019-02-28T14:48:08.985Z,14.10
2019-02-28T14:50:15.552Z,14.50
2019-02-28T14:52:21.409Z,14.30
2019-02-28T14:54:26.544Z,13.80
2019-02-28T14:56:31.557Z,13.60
2019-02-28T14:58:36.767Z,13.40
2019-02-28T15:00:42.422Z,13.40
2019-02-28T15:02:50.690Z,13.40
2019-02-28T15:04:56.316Z,13.50
2019-02-28T15:07:03.019Z,13.40
2019-02-28T15:09:16.144Z,13.40
2019-02-28T15:11:20.917Z,13.50
2019-02-28T15:13:25.932Z,13.50
2019-02-28T15:15:30.720Z,13.70
2019-02-28T15:17:38.699Z,13.90
2019-02-28T15:19:44.173Z,13.80
2019-02-28T15:21:49.390Z,13.60
2019-02-28T15:23:54.288Z,13.20
2019-02-28T15:25:59.505Z,13.20
2019-02-28T15:28:10.588Z,13.10
2019-02-28T15:30:24.127Z,13.00
2019-02-28T15:32:37.975Z,12.90
2019-02-28T15:37:57.075Z,12.50
2019-02-28T15:40:21.562Z,12.30
2019-02-28T15:42:29.096Z,12.30
2019-02-28T15:47:19.401Z,12.10
2019-02-28T15:50:02.936Z,12.10
2019-02-28T15:55:12.992Z,12.10
2019-02-28T15:57:31.308Z,12.10
2019-02-28T16:02:29.123Z,12.20
2019-02-28T16:04:36.347Z,12.20
2019-02-28T16:06:44.924Z,12.10
2019-02-28T16:14:42.342Z,12.20
2019-02-28T16:17:26.683Z,12.10
2019-02-28T16:19:48.575Z,12.10
2019-02-28T16:22:08.162Z,12.10
2019-02-28T16:24:24.510Z,12.10
2019-02-28T16:26:47.730Z,12.00
2019-02-28T16:29:20.614Z,12.00
2019-02-28T16:31:21.718Z,12.00
2019-02-28T16:33:27.464Z,12.00
2019-02-28T16:35:34.549Z,12.00
2019-02-28T16:37:40.261Z,12.00
2019-02-28T16:39:44.994Z,11.90
2019-02-28T16:41:49.759Z,11.90
2019-02-28T16:43:55.531Z,11.90
2019-02-28T16:46:04.752Z,11.90
2019-02-28T16:48:09.545Z,11.90
2019-02-28T16:50:15.344Z,11.90
2019-02-28T16:52:21.021Z,11.80
2019-02-28T16:54:27.772Z,11.80
2019-02-28T16:56:32.367Z,11.80
2019-02-28T16:58:37.328Z,11.70
2019-02-28T17:00:42.450Z,11.70
2019-02-28T17:02:49.062Z,11.70
2019-02-28T17:04:53.811Z,11.70
2019-02-28T17:06:58.656Z,11.70
2019-02-28T17:09:13.962Z,11.70
2019-02-28T17:11:19.394Z,11.60
2019-02-28T17:13:46.108Z,11.60
2019-02-28T17:16:01.507Z,11.60
2019-02-28T17:18:08.124Z,11.60
2019-02-28T17:20:13.190Z,11.50
2019-02-28T17:22:17.960Z,11.50
2019-02-28T17:24:23.130Z,11.40
2019-02-28T17:27:06.124Z,11.40
2019-02-28T17:29:15.998Z,11.40
2019-02-28T17:31:41.145Z,11.30
2019-02-28T17:33:46.921Z,11.30
2019-02-28T17:35:52.755Z,11.30
2019-02-28T17:38:00.173Z,11.20
2019-02-28T17:40:04.694Z,11.20
2019-02-28T17:42:14.838Z,11.20
2019-02-28T17:45:24.336Z,11.20
2019-02-28T17:48:17.742Z,11.10
2019-02-28T17:50:46.133Z,11.10
2019-02-28T17:53:27.752Z,11.10
2019-02-28T17:56:03.922Z,11.10
2019-02-28T17:58:46.402Z,11.00
2019-02-28T18:44:14.411Z,10.70
2019-02-28T18:46:29.558Z,10.70
2019-02-28T18:48:35.819Z,10.60
2019-02-28T18:51:11.096Z,10.60
2019-02-28T18:53:46.347Z,10.60
2019-02-28T18:55:56.933Z,10.50
2019-02-28T19:01:08.377Z,10.50
2019-02-28T19:04:22.667Z,10.40
2019-02-28T19:06:57.528Z,10.40
2019-02-28T19:09:07.084Z,10.30
2019-02-28T19:11:16.468Z,10.30
2019-02-28T19:13:26.490Z,10.30
2019-02-28T19:15:31.709Z,10.30
2019-02-28T19:20:48.958Z,10.20
2019-02-28T19:23:42.211Z,10.20
2019-02-28T19:25:47.568Z,10.10
2019-02-28T19:27:52.873Z,10.00
2019-02-28T19:29:58.043Z,9.90
2019-02-28T19:32:09.291Z,9.90
2019-02-28T19:46:47.322Z,9.90
2019-02-28T19:54:26.726Z,9.80
2019-02-28T19:56:47.513Z,9.90
2019-02-28T19:59:42.066Z,9.90
2019-02-28T20:18:36.923Z,9.90
2019-02-28T20:20:41.295Z,9.90
2019-02-28T20:29:03.918Z,9.90
2019-02-28T20:31:12.426Z,9.90
2019-02-28T20:41:52.522Z,9.90
2019-02-28T20:44:19.370Z,9.80
2019-02-28T20:46:25.592Z,9.80
2019-02-28T20:48:42.318Z,9.80
2019-02-28T20:50:53.981Z,9.70
2019-02-28T20:53:02.404Z,9.70
2019-02-28T20:55:08.725Z,9.70
2019-02-28T20:57:14.153Z,9.70
2019-02-28T20:59:22.966Z,9.60
2019-02-28T21:01:28.668Z,9.70
2019-02-28T21:03:33.600Z,9.60
2019-02-28T21:05:38.855Z,9.60
2019-02-28T21:07:44.239Z,9.60
2019-02-28T21:09:49.675Z,9.60
2019-02-28T21:11:55.849Z,9.60
2019-02-28T21:14:00.893Z,9.60
2019-02-28T21:16:05.745Z,9.60
2019-02-28T21:18:13.619Z,9.50
2019-02-28T21:20:18.802Z,9.50
2019-02-28T21:22:24.117Z,9.50
2019-02-28T21:24:28.877Z,9.50
2019-02-28T21:26:34.237Z,9.50
2019-02-28T21:28:39.667Z,9.50
2019-02-28T21:30:44.831Z,9.50
2019-02-28T21:32:53.383Z,9.60
2019-02-28T21:34:58.757Z,9.50
2019-02-28T21:37:03.609Z,9.50
2019-02-28T21:39:16.011Z,9.50
2019-02-28T21:41:21.042Z,9.40
2019-02-28T21:43:29.065Z,9.30
2019-02-28T21:45:34.731Z,9.30
2019-02-28T21:47:41.563Z,9.20
2019-02-28T21:49:47.546Z,9.20
2019-02-28T21:51:52.589Z,9.20
2019-02-28T21:53:57.371Z,9.20
2019-02-28T21:56:02.191Z,9.20
2019-02-28T21:58:17.670Z,9.20
2019-02-28T22:00:35.248Z,9.30
2019-02-28T22:02:40.825Z,9.30
2019-02-28T22:04:46.482Z,9.30
2019-02-28T22:07:13.130Z,9.30
2019-02-28T22:09:18.137Z,9.30
2019-02-28T22:11:24.262Z,9.30
2019-02-28T22:13:30.415Z,9.30
2019-02-28T22:15:35.457Z,9.30
2019-02-28T22:17:41.180Z,9.30
2019-02-28T22:19:46.075Z,9.30
2019-02-28T22:21:51.453Z,9.30
2019-02-28T22:23:56.637Z,9.40
2019-02-28T22:26:04.627Z,9.40
2019-02-28T22:28:09.444Z,9.40
2019-02-28T22:30:38.928Z,9.40
2019-02-28T22:32:52.280Z,9.40
2019-02-28T22:42:21.743Z,9.50
2019-02-28T22:44:21.087Z,9.50
2019-02-28T22:46:31.603Z,9.50
2019-02-28T22:48:36.775Z,9.50
2019-02-28T22:50:41.916Z,9.50
2019-02-28T22:52:47.456Z,9.40
2019-02-28T22:54:55.049Z,9.40
2019-02-28T22:57:01.765Z,9.40
2019-02-28T22:59:07.056Z,9.40
2019-02-28T23:01:14.909Z,9.40
2019-02-28T23:03:20.114Z,9.40
2019-02-28T23:05:33.982Z,9.30
2019-02-28T23:07:57.479Z,9.30
2019-02-28T23:10:18.095Z,9.40
2019-02-28T23:12:24.116Z,9.30
2019-02-28T23:14:30.412Z,9.40
2019-02-28T23:16:36.368Z,9.40
2019-02-28T23:18:41.573Z,9.40
2019-02-28T23:20:55.994Z,9.40
2019-02-28T23:23:33.416Z,9.40
2019-02-28T23:25:45.369Z,9.30
2019-02-28T23:31:17.582Z,9.30
2019-02-28T23:33:29.830Z,9.40
2019-02-28T23:35:43.207Z,9.30
2019-02-28T23:37:55.820Z,9.30
2019-02-28T23:40:07.194Z,9.30
2019-02-28T23:42:15.532Z,9.30
2019-02-28T23:44:25.115Z,9.30
2019-02-28T23:46:36.527Z,9.30
2019-02-28T23:48:46.546Z,9.30
2019-02-28T23:51:14.640Z,9.30
2019-02-28T23:53:23.400Z,9.30
2019-02-28T23:55:29.346Z,9.30
2019-02-28T23:57:35.912Z,9.30
2019-02-28T23:59:45.480Z,9.20
